Time;durP1;ratioP1;P1;durP2;ratioP2;P2;SDS_P1;SDS_P2;PMS_P1;PMS_P2;Temp;Humidity;BMP_temperature;BMP_pressure;BME280_temperature;BME280_humidity;BME280_pressure;Samples;Min_cycle;Max_cycle;Signal;HPM_P1;HPM_P2
2023/07/15 00:00:12;;;;;;;2.38;1.60;;;;;;;;;;5004386;28;20100;-77
2023/07/15 00:02:40;;;;;;;2.28;1.30;;;;;;;;;;5000031;28;20030;-77
2023/07/15 00:05:13;;;;;;;3.45;1.40;;;;;;;;;;4999325;28;20026;-77
2023/07/15 00:07:41;;;;;;;5.70;1.80;;;;;;;;;;5000565;28;20038;-77
2023/07/15 00:10:07;;;;;;;5.45;1.80;;;;;;;;;;4999446;28;20030;-77
2023/07/15 00:12:33;;;;;;;5.65;1.85;;;;;;;;;;5020916;28;20030;-77
2023/07/15 00:14:59;;;;;;;5.32;1.80;;;;;;;;;;4996765;28;20439;-77
2023/07/15 00:17:25;;;;;;;3.25;1.45;;;;;;;;;;4999356;28;20053;-77
2023/07/15 00:19:51;;;;;;;8.25;1.98;;;;;;;;;;4999513;28;20057;-77
2023/07/15 00:22:17;;;;;;;2.35;1.25;;;;;;;;;;5000761;28;20026;-76
2023/07/15 00:24:43;;;;;;;3.67;1.85;;;;;;;;;;5000438;28;20014;-77
2023/07/15 00:27:09;;;;;;;3.03;1.50;;;;;;;;;;4999839;28;20971;-75
2023/07/15 00:29:35;;;;;;;4.10;1.50;;;;;;;;;;5000826;28;20038;-77
2023/07/15 00:32:04;;;;;;;4.32;1.60;;;;;;;;;;5000457;28;20076;-77
2023/07/15 00:34:30;;;;;;;3.33;1.75;;;;;;;;;;5000091;28;20026;-77
2023/07/15 00:36:59;;;;;;;5.82;1.60;;;;;;;;;;5000373;28;20460;-77
2023/07/15 00:39:25;;;;;;;9.25;1.92;;;;;;;;;;5000637;28;20065;-77
2023/07/15 00:41:54;;;;;;;4.35;1.70;;;;;;;;;;5001012;28;20029;-77
2023/07/15 00:44:20;;;;;;;3.13;1.40;;;;;;;;;;4999400;28;20054;-76
2023/07/15 00:46:50;;;;;;;2.88;1.63;;;;;;;;;;4998968;28;20034;-77
2023/07/15 00:49:18;;;;;;;4.93;1.45;;;;;;;;;;5000444;28;20454;-77
2023/07/15 00:52:00;;;;;;;3.08;1.83;;;;;;;;;;4998882;28;20023;-77
2023/07/15 00:54:26;;;;;;;4.47;1.65;;;;;;;;;;5000172;28;20505;-77
2023/07/15 00:56:53;;;;;;;5.47;1.60;;;;;;;;;;5000161;28;20049;-77
2023/07/15 00:59:19;;;;;;;2.88;1.50;;;;;;;;;;5000746;28;20133;-77
2023/07/15 01:01:49;;;;;;;4.50;1.55;;;;;;;;;;4999713;28;20032;-77
2023/07/15 01:04:15;;;;;;;4.85;1.92;;;;;;;;;;4999536;28;20029;-78
2023/07/15 01:06:45;;;;;;;3.92;1.90;;;;;;;;;;5000971;28;20113;-76
2023/07/15 01:09:13;;;;;;;2.53;1.40;;;;;;;;;;5021263;28;20030;-76
2023/07/15 01:11:40;;;;;;;4.05;1.58;;;;;;;;;;4998509;28;20062;-77
2023/07/15 01:14:09;;;;;;;7.28;1.38;;;;;;;;;;4999922;28;20026;-77
2023/07/15 01:16:35;;;;;;;3.03;1.50;;;;;;;;;;4999189;28;20096;-77
2023/07/15 01:19:04;;;;;;;3.35;1.65;;;;;;;;;;4997665;28;20031;-77
2023/07/15 01:21:35;;;;;;;3.63;1.65;;;;;;;;;;5018763;28;20030;-77
2023/07/15 01:24:02;;;;;;;5.10;1.80;;;;;;;;;;5003886;28;20100;-77
2023/07/15 01:26:28;;;;;;;3.28;1.40;;;;;;;;;;5020228;28;20860;-77
2023/07/15 01:28:57;;;;;;;3.65;1.83;;;;;;;;;;4999058;28;20068;-77
2023/07/15 01:31:23;;;;;;;3.13;1.67;;;;;;;;;;5002098;28;20034;-77
2023/07/15 01:33:49;;;;;;;3.58;1.58;;;;;;;;;;5000522;28;21700;-77
2023/07/15 01:36:15;;;;;;;7.78;1.52;;;;;;;;;;5018774;28;20044;-77
2023/07/15 01:38:41;;;;;;;6.65;1.60;;;;;;;;;;5002927;28;20033;-77
2023/07/15 01:41:07;;;;;;;14.80;2.00;;;;;;;;;;5001772;28;20026;-78
2023/07/15 01:43:33;;;;;;;7.15;1.95;;;;;;;;;;4999210;28;20348;-77
2023/07/15 01:45:59;;;;;;;4.63;1.90;;;;;;;;;;4999990;28;20038;-77
2023/07/15 01:48:26;;;;;;;4.53;1.58;;;;;;;;;;4999355;28;20030;-77
2023/07/15 01:50:52;;;;;;;3.15;1.60;;;;;;;;;;4997910;28;20042;-77
2023/07/15 01:53:21;;;;;;;4.57;1.73;;;;;;;;;;5000012;28;20037;-77
2023/07/15 01:55:47;;;;;;;3.15;2.10;;;;;;;;;;4999606;28;20053;-77
2023/07/15 01:58:16;;;;;;;4.07;1.48;;;;;;;;;;4999444;28;20030;-77
2023/07/15 02:00:42;;;;;;;5.60;1.70;;;;;;;;;;5002297;28;20026;-77
2023/07/15 02:03:08;;;;;;;3.35;1.33;;;;;;;;;;5002952;28;20111;-77
2023/07/15 02:05:37;;;;;;;3.03;1.52;;;;;;;;;;5014664;28;20471;-76
2023/07/15 02:08:05;;;;;;;4.63;1.55;;;;;;;;;;4999222;28;20026;-77
2023/07/15 02:10:32;;;;;;;4.43;1.42;;;;;;;;;;5007890;28;20069;-75
2023/07/15 02:12:58;;;;;;;3.42;1.70;;;;;;;;;;5006350;28;20041;-76
2023/07/15 02:15:24;;;;;;;2.17;1.48;;;;;;;;;;5002684;28;20034;-77
2023/07/15 02:17:50;;;;;;;3.08;1.38;;;;;;;;;;5001908;28;20026;-76
2023/07/15 02:20:15;;;;;;;2.15;1.38;;;;;;;;;;5002016;28;20123;-77
2023/07/15 02:22:42;;;;;;;6.00;2.13;;;;;;;;;;5002701;28;20458;-76
2023/07/15 02:25:09;;;;;;;2.42;1.52;;;;;;;;;;5002555;28;20470;-77
2023/07/15 02:27:35;;;;;;;4.93;1.30;;;;;;;;;;5002147;28;20034;-77
2023/07/15 02:30:01;;;;;;;5.38;1.60;;;;;;;;;;5003059;28;20026;-77
2023/07/15 02:32:40;;;;;;;3.53;1.58;;;;;;;;;;5002048;28;20200;-77
2023/07/15 02:35:10;;;;;;;8.48;2.13;;;;;;;;;;5001027;28;20458;-77
2023/07/15 02:37:42;;;;;;;4.32;1.75;;;;;;;;;;5001921;28;20038;-77
2023/07/15 02:40:10;;;;;;;3.55;1.63;;;;;;;;;;5000881;28;20037;-77
2023/07/15 02:42:36;;;;;;;5.90;1.70;;;;;;;;;;5002261;28;20138;-77
2023/07/15 02:45:04;;;;;;;4.10;1.73;;;;;;;;;;5006185;28;20034;-76
2023/07/15 02:47:30;;;;;;;4.07;1.77;;;;;;;;;;5021033;28;20030;-77
2023/07/15 02:49:57;;;;;;;4.18;1.33;;;;;;;;;;5008020;28;20056;-77
2023/07/15 02:52:23;;;;;;;2.95;1.40;;;;;;;;;;5006620;28;20037;-77
2023/07/15 02:54:49;;;;;;;3.83;1.75;;;;;;;;;;5006065;28;20067;-78
2023/07/15 02:57:15;;;;;;;6.32;1.17;;;;;;;;;;5005784;28;20096;-77
2023/07/15 02:59:41;;;;;;;4.00;1.95;;;;;;;;;;5006620;28;20443;-77
2023/07/15 03:02:11;;;;;;;3.92;1.60;;;;;;;;;;5005195;28;20018;-77
2023/07/15 03:04:37;;;;;;;4.88;1.80;;;;;;;;;;5005321;28;20073;-77
2023/07/15 03:07:04;;;;;;;2.53;1.20;;;;;;;;;;5001775;28;20037;-77
2023/07/15 03:09:30;;;;;;;3.33;1.27;;;;;;;;;;5005124;28;20352;-77
2023/07/15 03:11:59;;;;;;;3.42;1.52;;;;;;;;;;5004551;28;20048;-77
2023/07/15 03:14:25;;;;;;;2.42;1.30;;;;;;;;;;5005507;28;20030;-77
2023/07/15 03:16:51;;;;;;;6.55;1.33;;;;;;;;;;5004767;28;20034;-77
2023/07/15 03:19:17;;;;;;;4.22;1.45;;;;;;;;;;5006193;28;20076;-76
2023/07/15 03:21:43;;;;;;;2.28;1.38;;;;;;;;;;5003297;28;20461;-77
2023/07/15 03:24:09;;;;;;;2.83;1.77;;;;;;;;;;5020940;28;20034;-78
2023/07/15 03:26:35;;;;;;;2.22;1.27;;;;;;;;;;5001540;28;20041;-76
2023/07/15 03:29:05;;;;;;;4.10;1.38;;;;;;;;;;5000573;28;20049;-77
2023/07/15 03:31:32;;;;;;;4.28;1.67;;;;;;;;;;5017767;28;20038;-77
2023/07/15 03:34:00;;;;;;;3.47;1.67;;;;;;;;;;5001934;28;20095;-76
2023/07/15 03:36:26;;;;;;;5.43;1.88;;;;;;;;;;5001565;28;20038;-77
2023/07/15 03:38:52;;;;;;;3.00;1.63;;;;;;;;;;5004068;28;20888;-77
2023/07/15 03:41:18;;;;;;;4.72;2.25;;;;;;;;;;5002811;28;20105;-77
2023/07/15 03:43:44;;;;;;;5.18;1.67;;;;;;;;;;5001025;28;20045;-77
2023/07/15 03:46:10;;;;;;;2.70;1.63;;;;;;;;;;5001860;28;20044;-76
2023/07/15 03:48:36;;;;;;;3.75;1.85;;;;;;;;;;5016889;28;20043;-77
2023/07/15 03:51:06;;;;;;;2.83;1.67;;;;;;;;;;5001802;28;20038;-76
2023/07/15 03:53:32;;;;;;;3.88;1.67;;;;;;;;;;5001216;28;20044;-76
2023/07/15 03:55:58;;;;;;;2.08;1.17;;;;;;;;;;5004362;28;20675;-76
2023/07/15 03:58:24;;;;;;;2.75;1.63;;;;;;;;;;5000836;28;20029;-77
2023/07/15 04:00:50;;;;;;;4.13;1.90;;;;;;;;;;4997704;28;20037;-77
2023/07/15 04:03:16;;;;;;;5.55;1.25;;;;;;;;;;4999993;28;20030;-78
2023/07/15 04:05:46;;;;;;;3.58;1.50;;;;;;;;;;5004269;28;20120;-77
2023/07/15 04:08:12;;;;;;;4.00;1.20;;;;;;;;;;5000929;28;20030;-77
2023/07/15 04:10:38;;;;;;;3.53;1.85;;;;;;;;;;4999720;28;20037;-78
2023/07/15 04:13:04;;;;;;;3.83;1.77;;;;;;;;;;5000547;28;20033;-77
2023/07/15 04:15:30;;;;;;;2.63;1.33;;;;;;;;;;4999095;28;20054;-77
2023/07/15 04:17:56;;;;;;;2.72;1.35;;;;;;;;;;5000058;28;20042;-77
2023/07/15 04:20:22;;;;;;;4.43;1.58;;;;;;;;;;5003325;28;21722;-78
2023/07/15 04:22:53;;;;;;;5.60;1.83;;;;;;;;;;5004489;28;20037;-76
2023/07/15 04:25:19;;;;;;;4.65;1.40;;;;;;;;;;5001131;28;20040;-77
2023/07/15 04:27:47;;;;;;;5.93;1.50;;;;;;;;;;5003583;28;20029;-77
2023/07/15 04:30:16;;;;;;;2.58;1.00;;;;;;;;;;5000894;28;20042;-78
2023/07/15 04:32:42;;;;;;;3.03;1.48;;;;;;;;;;4997727;28;20120;-77
2023/07/15 04:35:10;;;;;;;4.90;1.80;;;;;;;;;;5001100;28;20426;-77
2023/07/15 04:37:38;;;;;;;2.22;1.08;;;;;;;;;;5016886;28;20033;-76
2023/07/15 04:40:07;;;;;;;4.05;1.27;;;;;;;;;;5001272;28;20054;-77
2023/07/15 04:42:36;;;;;;;5.13;1.30;;;;;;;;;;4999383;28;20034;-77
2023/07/15 04:45:02;;;;;;;3.00;1.08;;;;;;;;;;5000061;28;20030;-77
2023/07/15 04:47:30;;;;;;;6.20;1.35;;;;;;;;;;4999391;28;20022;-76
2023/07/15 04:49:56;;;;;;;4.28;1.20;;;;;;;;;;4999659;28;20141;-78
2023/07/15 04:52:22;;;;;;;3.75;1.30;;;;;;;;;;4999178;28;20471;-77
2023/07/15 04:54:48;;;;;;;1.88;1.48;;;;;;;;;;4998621;28;20065;-77
2023/07/15 04:57:18;;;;;;;3.47;1.00;;;;;;;;;;5015386;28;20069;-78
2023/07/15 04:59:46;;;;;;;2.58;1.05;;;;;;;;;;5003316;28;20034;-77
2023/07/15 05:02:12;;;;;;;3.22;1.60;;;;;;;;;;5000118;28;20524;-77
2023/07/15 05:04:37;;;;;;;5.57;1.27;;;;;;;;;;5001010;28;20803;-77
2023/07/15 05:07:04;;;;;;;3.55;1.58;;;;;;;;;;5005126;28;20049;-77
2023/07/15 05:09:32;;;;;;;5.60;1.75;;;;;;;;;;5001888;28;20972;-77
2023/07/15 05:12:00;;;;;;;2.05;1.38;;;;;;;;;;5000785;28;20038;-77
2023/07/15 05:14:26;;;;;;;3.80;1.40;;;;;;;;;;5000658;28;20038;-76
2023/07/15 05:16:55;;;;;;;5.40;1.95;;;;;;;;;;5007560;28;20034;-78
2023/07/15 05:19:22;;;;;;;5.70;1.30;;;;;;;;;;5003157;28;20069;-77
2023/07/15 05:21:48;;;;;;;3.35;1.50;;;;;;;;;;4998945;28;20026;-77
2023/07/15 05:24:14;;;;;;;5.18;1.52;;;;;;;;;;5003160;28;20366;-77
2023/07/15 05:26:40;;;;;;;3.72;1.35;;;;;;;;;;4999373;28;20045;-77
2023/07/15 05:29:09;;;;;;;4.97;1.42;;;;;;;;;;5019335;28;20352;-76
2023/07/15 05:31:35;;;;;;;4.45;1.30;;;;;;;;;;4999403;28;20363;-77
2023/07/15 05:34:01;;;;;;;5.85;1.20;;;;;;;;;;4998848;28;20040;-77
2023/07/15 05:36:28;;;;;;;5.13;1.40;;;;;;;;;;5000519;28;20034;-77
2023/07/15 05:38:54;;;;;;;3.88;1.40;;;;;;;;;;5000141;28;20035;-76
2023/07/15 05:41:20;;;;;;;3.13;1.55;;;;;;;;;;5000146;28;20034;-78
2023/07/15 05:43:48;;;;;;;3.20;1.83;;;;;;;;;;4999719;28;20116;-77
2023/07/15 05:46:14;;;;;;;4.65;1.60;;;;;;;;;;5003386;28;20030;-77
2023/07/15 05:48:42;;;;;;;5.07;2.30;;;;;;;;;;5002339;28;20040;-76
2023/07/15 05:51:10;;;;;;;3.22;1.48;;;;;;;;;;5003247;28;20044;-77
2023/07/15 05:53:36;;;;;;;2.75;1.70;;;;;;;;;;5002489;28;20025;-77
2023/07/15 05:56:02;;;;;;;3.58;1.27;;;;;;;;;;5003086;28;20081;-77
2023/07/15 05:58:30;;;;;;;2.80;1.30;;;;;;;;;;5003724;28;20458;-75
2023/07/15 06:00:56;;;;;;;4.60;1.95;;;;;;;;;;5002608;28;20037;-77
2023/07/15 06:03:23;;;;;;;5.15;3.15;;;;;;;;;;5003993;28;20033;-77
2023/07/15 06:05:49;;;;;;;5.60;2.60;;;;;;;;;;5005244;28;20034;-77
2023/07/15 06:08:15;;;;;;;4.60;1.48;;;;;;;;;;5002140;28;20041;-76
2023/07/15 06:10:42;;;;;;;5.43;1.65;;;;;;;;;;5005907;28;20066;-77
2023/07/15 06:13:08;;;;;;;3.45;1.10;;;;;;;;;;5004967;28;20060;-77
2023/07/15 06:15:36;;;;;;;8.30;1.40;;;;;;;;;;5002827;28;20026;-77
2023/07/15 06:18:02;;;;;;;2.95;1.30;;;;;;;;;;5005189;28;20019;-77
2023/07/15 06:20:28;;;;;;;5.43;1.52;;;;;;;;;;5001336;28;20033;-77
2023/07/15 06:22:54;;;;;;;4.22;1.65;;;;;;;;;;5002861;28;20383;-77
2023/07/15 06:25:20;;;;;;;2.70;1.65;;;;;;;;;;4999985;28;20057;-77
2023/07/15 06:27:46;;;;;;;5.15;1.95;;;;;;;;;;5002381;28;20394;-77
2023/07/15 06:30:12;;;;;;;7.32;3.92;;;;;;;;;;5001220;28;20034;-77
2023/07/15 06:32:38;;;;;;;10.15;2.45;;;;;;;;;;5004915;28;20022;-77
2023/07/15 06:35:04;;;;;;;5.20;2.35;;;;;;;;;;5001055;28;20049;-77
2023/07/15 06:37:30;;;;;;;3.58;2.42;;;;;;;;;;5000950;28;20059;-77
2023/07/15 06:39:56;;;;;;;3.10;1.38;;;;;;;;;;5000260;28;20094;-77
2023/07/15 06:42:22;;;;;;;2.72;1.50;;;;;;;;;;5000900;28;20116;-77
2023/07/15 06:44:51;;;;;;;4.05;1.50;;;;;;;;;;5021225;28;20634;-77
2023/07/15 06:47:17;;;;;;;3.15;1.00;;;;;;;;;;5000365;28;20034;-77
2023/07/15 06:49:43;;;;;;;7.10;2.00;;;;;;;;;;5002094;28;20044;-77
2023/07/15 06:52:09;;;;;;;3.92;1.60;;;;;;;;;;5001992;28;20030;-77
2023/07/15 06:54:35;;;;;;;6.82;1.65;;;;;;;;;;5000465;28;20033;-77
2023/07/15 06:57:01;;;;;;;7.40;1.40;;;;;;;;;;5020332;28;20049;-77
2023/07/15 06:59:26;;;;;;;5.82;1.77;;;;;;;;;;5001173;28;20038;-77
2023/07/15 07:01:53;;;;;;;3.85;1.02;;;;;;;;;;5001287;28;20050;-77
2023/07/15 07:04:19;;;;;;;3.95;1.35;;;;;;;;;;5003767;28;20038;-77
2023/07/15 07:06:45;;;;;;;4.25;1.20;;;;;;;;;;5017818;28;20088;-77
2023/07/15 07:09:11;;;;;;;5.32;1.73;;;;;;;;;;5016748;28;20076;-77
2023/07/15 07:11:40;;;;;;;1.63;1.02;;;;;;;;;;5002592;28;20037;-77
2023/07/15 07:14:06;;;;;;;6.95;1.70;;;;;;;;;;5001034;28;20125;-77
2023/07/15 07:16:32;;;;;;;3.85;1.50;;;;;;;;;;5000079;28;20076;-78
2023/07/15 07:18:58;;;;;;;3.53;1.75;;;;;;;;;;5004630;28;20113;-77
2023/07/15 07:21:24;;;;;;;7.93;1.45;;;;;;;;;;5000967;28;20041;-77
2023/07/15 07:23:52;;;;;;;2.65;1.38;;;;;;;;;;5020533;28;20026;-77
2023/07/15 07:26:18;;;;;;;4.00;1.35;;;;;;;;;;5005003;28;20478;-77
2023/07/15 07:28:45;;;;;;;3.97;1.80;;;;;;;;;;5019281;28;20034;-77
2023/07/15 07:31:11;;;;;;;8.05;2.00;;;;;;;;;;5000869;28;20072;-77
2023/07/15 07:33:38;;;;;;;2.88;1.98;;;;;;;;;;5000917;28;20477;-76
2023/07/15 07:36:04;;;;;;;3.72;1.85;;;;;;;;;;4999776;28;20041;-78
2023/07/15 07:38:32;;;;;;;3.70;1.40;;;;;;;;;;5000151;28;20137;-78
2023/07/15 07:41:05;;;;;;;1.95;1.20;;;;;;;;;;4999906;28;20038;-77
2023/07/15 07:43:32;;;;;;;4.40;1.50;;;;;;;;;;4997473;28;20022;-76
2023/07/15 07:45:59;;;;;;;5.18;1.40;;;;;;;;;;5019175;28;20029;-78
2023/07/15 07:48:25;;;;;;;6.30;1.42;;;;;;;;;;5003690;28;20125;-78
2023/07/15 07:50:51;;;;;;;2.22;0.90;;;;;;;;;;4999491;28;20199;-78
2023/07/15 07:53:17;;;;;;;2.15;1.00;;;;;;;;;;5014667;28;20038;-77
2023/07/15 07:55:43;;;;;;;6.47;1.92;;;;;;;;;;4999103;28;20040;-77
2023/07/15 07:58:09;;;;;;;6.22;1.45;;;;;;;;;;5015495;28;20049;-77
2023/07/15 08:00:35;;;;;;;5.00;2.53;;;;;;;;;;4999057;28;20058;-77
2023/07/15 08:03:01;;;;;;;3.42;1.60;;;;;;;;;;4999157;28;20041;-76
2023/07/15 08:05:27;;;;;;;5.65;2.22;;;;;;;;;;4998635;28;20069;-78
2023/07/15 08:07:53;;;;;;;5.28;1.75;;;;;;;;;;4998936;28;20038;-78
2023/07/15 08:10:19;;;;;;;5.28;1.50;;;;;;;;;;4999130;28;20088;-78
2023/07/15 08:12:45;;;;;;;2.10;1.27;;;;;;;;;;5002482;28;20034;-77
2023/07/15 08:15:13;;;;;;;3.67;1.05;;;;;;;;;;5019455;28;20089;-77
2023/07/15 08:17:39;;;;;;;5.15;1.17;;;;;;;;;;4997869;28;20042;-77
2023/07/15 08:20:08;;;;;;;2.22;1.35;;;;;;;;;;5000114;28;21006;-77
2023/07/15 08:22:34;;;;;;;2.60;1.42;;;;;;;;;;5000048;28;20026;-77
2023/07/15 08:25:03;;;;;;;3.53;1.50;;;;;;;;;;4998796;28;20030;-78
2023/07/15 08:27:29;;;;;;;5.47;1.60;;;;;;;;;;4998551;28;20304;-79
2023/07/15 08:29:55;;;;;;;3.17;1.55;;;;;;;;;;4999287;28;20026;-78
2023/07/15 08:32:21;;;;;;;5.18;1.60;;;;;;;;;;4997935;28;20911;-79
2023/07/15 08:35:05;;;;;;;3.80;1.73;;;;;;;;;;5003144;28;20096;-79
2023/07/15 08:37:32;;;;;;;7.82;2.22;;;;;;;;;;4999829;28;20029;-76
2023/07/15 08:39:58;;;;;;;6.90;2.47;;;;;;;;;;5019508;28;20022;-79
2023/07/15 08:42:27;;;;;;;4.03;1.90;;;;;;;;;;5000849;28;20034;-77
2023/07/15 08:44:53;;;;;;;3.67;2.10;;;;;;;;;;5003380;28;20053;-77
2023/07/15 08:47:20;;;;;;;4.75;2.20;;;;;;;;;;5002654;28;20133;-78
2023/07/15 08:49:46;;;;;;;9.40;2.30;;;;;;;;;;5005166;28;20061;-76
2023/07/15 08:52:15;;;;;;;7.63;3.17;;;;;;;;;;5017475;28;20029;-77
2023/07/15 08:54:41;;;;;;;7.22;3.45;;;;;;;;;;5003170;28;20037;-77
2023/07/15 08:57:10;;;;;;;6.18;3.15;;;;;;;;;;5002983;28;20049;-78
2023/07/15 08:59:36;;;;;;;6.22;3.95;;;;;;;;;;5003848;28;20065;-80
2023/07/15 09:02:02;;;;;;;4.95;3.53;;;;;;;;;;5002599;28;20450;-76
2023/07/15 09:04:29;;;;;;;5.75;3.60;;;;;;;;;;5003882;28;20491;-79
2023/07/15 09:06:57;;;;;;;16.90;4.93;;;;;;;;;;5000962;28;20100;-80
2023/07/15 09:09:42;;;;;;;11.23;6.07;;;;;;;;;;5003692;28;20029;-77
2023/07/15 09:12:10;;;;;;;10.82;5.80;;;;;;;;;;5001067;28;20049;-77
2023/07/15 09:14:42;;;;;;;10.07;6.00;;;;;;;;;;4997928;28;20073;-77
2023/07/15 09:17:08;;;;;;;11.35;7.00;;;;;;;;;;4999031;28;20084;-78
2023/07/15 09:19:35;;;;;;;11.65;7.07;;;;;;;;;;5002701;28;20038;-83
2023/07/15 09:22:05;;;;;;;12.52;7.30;;;;;;;;;;5003475;28;20064;-77
2023/07/15 09:24:33;;;;;;;9.90;7.63;;;;;;;;;;5002826;28;20026;-77
2023/07/15 09:27:02;;;;;;;12.30;7.32;;;;;;;;;;5003475;28;20344;-78
2023/07/15 09:29:28;;;;;;;14.20;8.32;;;;;;;;;;5002987;28;20030;-78
2023/07/15 09:31:54;;;;;;;16.77;7.28;;;;;;;;;;5002995;28;20034;-78
2023/07/15 09:34:20;;;;;;;11.55;6.70;;;;;;;;;;5001840;28;20037;-79
2023/07/15 09:36:46;;;;;;;8.80;6.47;;;;;;;;;;5004296;28;20049;-79
2023/07/15 09:39:12;;;;;;;9.75;6.63;;;;;;;;;;5002076;28;20034;-77
2023/07/15 09:41:39;;;;;;;9.35;5.88;;;;;;;;;;5002609;28;20042;-78
2023/07/15 09:44:05;;;;;;;11.15;6.50;;;;;;;;;;5001868;28;20096;-77
2023/07/15 09:46:32;;;;;;;17.10;8.55;;;;;;;;;;5000601;28;20442;-77
2023/07/15 09:48:58;;;;;;;14.63;7.95;;;;;;;;;;5002450;28;20034;-78
2023/07/15 09:51:25;;;;;;;17.05;7.45;;;;;;;;;;5002565;28;20064;-78
2023/07/15 09:53:51;;;;;;;18.65;8.35;;;;;;;;;;5003862;28;20096;-78
2023/07/15 09:56:19;;;;;;;16.40;8.63;;;;;;;;;;5003227;28;20044;-78
2023/07/15 09:58:47;;;;;;;15.05;8.73;;;;;;;;;;5002504;28;20042;-78
2023/07/15 10:01:31;;;;;;;18.60;11.85;;;;;;;;;;5007321;28;20034;-78
2023/07/15 10:04:07;;;;;;;15.60;9.00;;;;;;;;;;5007300;28;20037;-78
2023/07/15 10:06:33;;;;;;;11.80;7.90;;;;;;;;;;5004610;28;20026;-78
2023/07/15 10:09:02;;;;;;;12.60;7.13;;;;;;;;;;5024588;28;20041;-78
2023/07/15 10:11:31;;;;;;;12.73;7.80;;;;;;;;;;5022837;28;20038;-78
2023/07/15 10:13:58;;;;;;;14.13;8.38;;;;;;;;;;5018358;28;20033;-78
2023/07/15 10:16:24;;;;;;;13.13;8.18;;;;;;;;;;5007757;28;20022;-77
2023/07/15 10:18:50;;;;;;;13.73;8.65;;;;;;;;;;5002891;28;20043;-77
2023/07/15 10:21:16;;;;;;;13.27;7.80;;;;;;;;;;5005527;28;20048;-77
2023/07/15 10:23:42;;;;;;;15.88;7.95;;;;;;;;;;5018808;28;20041;-77
2023/07/15 10:26:08;;;;;;;12.93;7.43;;;;;;;;;;5005378;28;20049;-78
2023/07/15 10:28:36;;;;;;;13.27;9.48;;;;;;;;;;5005686;28;20545;-76
2023/07/15 10:31:07;;;;;;;10.85;7.57;;;;;;;;;;5022985;28;20030;-77
2023/07/15 10:33:36;;;;;;;15.48;7.32;;;;;;;;;;5001007;28;20119;-76
2023/07/15 10:36:06;;;;;;;12.32;7.10;;;;;;;;;;5004577;28;20036;-76
2023/07/15 10:38:35;;;;;;;8.30;6.00;;;;;;;;;;5021723;28;20030;-76
2023/07/15 10:41:05;;;;;;;10.50;5.82;;;;;;;;;;5004714;28;20108;-78
2023/07/15 10:43:36;;;;;;;11.95;5.32;;;;;;;;;;5002897;28;20105;-78
2023/07/15 10:46:12;;;;;;;11.67;7.03;;;;;;;;;;5002042;28;20033;-79
2023/07/15 10:48:39;;;;;;;10.30;5.80;;;;;;;;;;5001845;28;20382;-78
2023/07/15 10:51:07;;;;;;;12.25;5.20;;;;;;;;;;5023222;28;20126;-81
2023/07/15 10:53:33;;;;;;;7.22;4.65;;;;;;;;;;5002239;28;20107;-82
2023/07/15 10:56:06;;;;;;;9.75;5.47;;;;;;;;;;5002170;28;20477;-84
2023/07/15 10:58:33;;;;;;;11.00;5.05;;;;;;;;;;5002940;28;20057;-85
2023/07/15 11:01:00;;;;;;;7.45;5.07;;;;;;;;;;5000733;28;20040;-83
2023/07/15 11:03:27;;;;;;;8.05;4.82;;;;;;;;;;5001943;28;20068;-85
2023/07/15 11:05:55;;;;;;;6.20;4.40;;;;;;;;;;5001162;28;20385;-83
2023/07/15 11:08:21;;;;;;;11.65;4.55;;;;;;;;;;5001421;28;20041;-83
2023/07/15 11:10:47;;;;;;;10.88;5.00;;;;;;;;;;5000886;28;20042;-81
2023/07/15 11:13:17;;;;;;;9.38;4.28;;;;;;;;;;5020811;28;20117;-82
2023/07/15 11:15:46;;;;;;;12.27;6.55;;;;;;;;;;5000399;28;20034;-80
2023/07/15 11:18:15;;;;;;;6.70;4.18;;;;;;;;;;5000312;28;20394;-88
2023/07/15 11:20:44;;;;;;;4.97;4.22;;;;;;;;;;4998341;28;20125;-85
2023/07/15 11:23:10;;;;;;;7.18;4.40;;;;;;;;;;5000622;28;20026;-81
2023/07/15 11:25:37;;;;;;;7.95;4.00;;;;;;;;;;5001955;28;20045;-84
2023/07/15 11:28:03;;;;;;;5.03;3.88;;;;;;;;;;5000636;28;20049;-82
2023/07/15 11:30:36;;;;;;;7.22;4.07;;;;;;;;;;4999896;28;20117;-82
2023/07/15 11:33:03;;;;;;;5.43;3.63;;;;;;;;;;5000695;28;20117;-83
2023/07/15 11:35:33;;;;;;;7.90;4.40;;;;;;;;;;4999907;28;20125;-81
2023/07/15 11:37:59;;;;;;;8.00;4.05;;;;;;;;;;5001983;28;20033;-82
2023/07/15 11:40:25;;;;;;;8.70;4.35;;;;;;;;;;5000563;28;20072;-84
2023/07/15 11:42:51;;;;;;;6.97;3.60;;;;;;;;;;5001196;28;20038;-83
2023/07/15 11:45:19;;;;;;;6.65;4.00;;;;;;;;;;5000497;28;20030;-83
2023/07/15 11:47:45;;;;;;;4.63;3.35;;;;;;;;;;5001821;28;20112;-84
2023/07/15 11:50:13;;;;;;;6.18;3.90;;;;;;;;;;5004656;28;20140;-82
2023/07/15 11:52:42;;;;;;;4.85;3.33;;;;;;;;;;5000796;28;20068;-83
2023/07/15 11:55:08;;;;;;;6.25;2.97;;;;;;;;;;5006770;28;20034;-83
2023/07/15 11:57:42;;;;;;;5.00;3.53;;;;;;;;;;5018910;28;20137;-82
2023/07/15 12:00:24;;;;;;;7.00;3.78;;;;;;;;;;4998671;28;20034;-83
2023/07/15 12:02:52;;;;;;;6.18;3.28;;;;;;;;;;5016015;28;20355;-83
2023/07/15 12:05:18;;;;;;;7.13;3.95;;;;;;;;;;5002779;28;20026;-77
2023/07/15 12:07:48;;;;;;;6.55;4.20;;;;;;;;;;5000180;28;20027;-79
2023/07/15 12:10:14;;;;;;;4.80;3.60;;;;;;;;;;4999994;28;20092;-79
2023/07/15 12:12:45;;;;;;;8.52;3.67;;;;;;;;;;4999416;28;20030;-82
2023/07/15 12:15:11;;;;;;;6.40;3.75;;;;;;;;;;4999958;28;20030;-84
2023/07/15 12:17:37;;;;;;;5.10;3.20;;;;;;;;;;4999706;28;20111;-79
2023/07/15 12:20:03;;;;;;;5.25;3.50;;;;;;;;;;5003098;28;20466;-81
2023/07/15 12:22:29;;;;;;;4.85;3.20;;;;;;;;;;4998860;28;20119;-83
2023/07/15 12:24:55;;;;;;;6.78;3.75;;;;;;;;;;4998077;28;20029;-80
2023/07/15 12:27:21;;;;;;;6.80;4.15;;;;;;;;;;5002493;28;20045;-81
2023/07/15 12:29:47;;;;;;;6.55;4.07;;;;;;;;;;5019462;28;20045;-84
2023/07/15 12:32:13;;;;;;;5.78;4.10;;;;;;;;;;5001227;28;20084;-81
2023/07/15 12:34:39;;;;;;;11.32;3.90;;;;;;;;;;4996639;28;20069;-82
2023/07/15 12:37:05;;;;;;;5.38;4.35;;;;;;;;;;5018964;28;20687;-79
2023/07/15 12:39:31;;;;;;;5.97;4.30;;;;;;;;;;4999392;28;20034;-79
2023/07/15 12:41:58;;;;;;;4.90;3.53;;;;;;;;;;4999301;28;20033;-83
2023/07/15 12:44:24;;;;;;;5.57;4.10;;;;;;;;;;4999828;28;20029;-85
2023/07/15 12:46:50;;;;;;;6.40;4.00;;;;;;;;;;5018792;28;20031;-82
2023/07/15 12:49:16;;;;;;;9.50;7.13;;;;;;;;;;4997553;28;20029;-83
2023/07/15 12:51:42;;;;;;;6.38;4.50;;;;;;;;;;4998674;28;20037;-84
2023/07/15 12:54:10;;;;;;;6.18;4.25;;;;;;;;;;5001363;28;20034;-81
2023/07/15 12:56:39;;;;;;;5.10;3.67;;;;;;;;;;4999277;28;20057;-82
2023/07/15 12:59:05;;;;;;;6.72;3.95;;;;;;;;;;5018251;28;20038;-83
2023/07/15 13:01:33;;;;;;;9.30;4.07;;;;;;;;;;4998183;28;20199;-85
2023/07/15 13:03:59;;;;;;;6.15;4.40;;;;;;;;;;4998351;28;20888;-82
2023/07/15 13:06:27;;;;;;;5.68;4.45;;;;;;;;;;4999196;28;20023;-87
2023/07/15 13:08:53;;;;;;;7.65;4.05;;;;;;;;;;5000074;28;20980;-84
2023/07/15 13:11:21;;;;;;;8.68;4.72;;;;;;;;;;4998114;28;20057;-85
2023/07/15 13:13:47;;;;;;;8.57;4.30;;;;;;;;;;5016320;28;20037;-84
2023/07/15 13:16:13;;;;;;;5.65;4.07;;;;;;;;;;4996696;28;20041;-84
2023/07/15 13:18:39;;;;;;;6.53;4.05;;;;;;;;;;4997859;28;20037;-79
2023/07/15 13:21:05;;;;;;;9.27;5.00;;;;;;;;;;4999357;28;21836;-87
2023/07/15 13:23:33;;;;;;;6.38;3.88;;;;;;;;;;4999535;28;20030;-85
2023/07/15 13:25:59;;;;;;;6.70;3.60;;;;;;;;;;4998512;28;20376;-88
2023/07/15 13:28:28;;;;;;;5.03;3.45;;;;;;;;;;4999523;28;20030;-86
2023/07/15 13:30:53;;;;;;;4.47;3.10;;;;;;;;;;4999811;28;20041;-88
2023/07/15 13:33:22;;;;;;;4.80;3.45;;;;;;;;;;5020105;28;20073;-88
2023/07/15 13:35:51;;;;;;;4.60;3.05;;;;;;;;;;5000530;28;20031;-84
2023/07/15 13:38:17;;;;;;;6.63;3.65;;;;;;;;;;4996771;28;20030;-85
2023/07/15 13:40:43;;;;;;;7.50;3.65;;;;;;;;;;4993856;28;20034;-85
2023/07/15 13:43:09;;;;;;;5.72;3.15;;;;;;;;;;4996813;28;20148;-86
2023/07/15 13:45:35;;;;;;;4.88;2.85;;;;;;;;;;4998083;28;20060;-83
2023/07/15 13:48:01;;;;;;;3.03;2.58;;;;;;;;;;5001828;28;20077;-84
2023/07/15 13:50:29;;;;;;;5.10;2.55;;;;;;;;;;4995769;28;20431;-84
2023/07/15 13:52:55;;;;;;;6.47;2.85;;;;;;;;;;4998981;28;20035;-84
2023/07/15 13:55:21;;;;;;;3.22;2.20;;;;;;;;;;4997961;28;20707;-86
2023/07/15 13:57:47;;;;;;;4.97;1.92;;;;;;;;;;5000565;28;20030;-79
2023/07/15 14:00:13;;;;;;;5.63;2.63;;;;;;;;;;5000481;28;20042;-79
2023/07/15 14:02:42;;;;;;;2.13;1.60;;;;;;;;;;5002391;28;20389;-80
2023/07/15 14:05:09;;;;;;;4.40;2.53;;;;;;;;;;5005434;28;20124;-80
2023/07/15 14:07:37;;;;;;;4.38;2.65;;;;;;;;;;5006220;28;20033;-79
2023/07/15 14:10:04;;;;;;;3.67;2.05;;;;;;;;;;5008941;28;20878;-81
2023/07/15 14:12:30;;;;;;;3.50;1.98;;;;;;;;;;5007076;28;20038;-80
2023/07/15 14:14:56;;;;;;;4.32;1.90;;;;;;;;;;5005922;28;20080;-80
2023/07/15 14:17:22;;;;;;;2.53;1.80;;;;;;;;;;5008220;28;20094;-79
2023/07/15 14:19:50;;;;;;;3.05;2.03;;;;;;;;;;5005021;28;20421;-79
2023/07/15 14:22:18;;;;;;;2.40;1.60;;;;;;;;;;5025349;28;20483;-80
2023/07/15 14:24:47;;;;;;;4.22;1.83;;;;;;;;;;5004258;28;20088;-79
2023/07/15 14:27:15;;;;;;;2.53;1.45;;;;;;;;;;5002827;28;20026;-83
2023/07/15 14:29:41;;;;;;;3.47;1.38;;;;;;;;;;5002707;28;20044;-85
2023/07/15 14:32:07;;;;;;;3.35;1.58;;;;;;;;;;5003657;28;20029;-82
2023/07/15 14:34:33;;;;;;;4.20;1.80;;;;;;;;;;5001586;28;20034;-80
2023/07/15 14:37:00;;;;;;;5.25;1.65;;;;;;;;;;5017042;28;21645;-85
2023/07/15 14:39:26;;;;;;;7.93;1.88;;;;;;;;;;5001906;28;20038;-85